sensor_id;sensor_type;location;lat;lon;timestamp;temperature;humidity
26503;DHT22;14177;51.520;6.764;2023-03-03T00:02:24;2.60;99.90
26503;DHT22;14177;51.520;6.764;2023-03-03T00:06:13;2.50;99.90
26503;DHT22;14177;51.520;6.764;2023-03-03T00:09:22;2.60;99.90
26503;DHT22;14177;51.520;6.764;2023-03-03T00:12:35;2.50;99.90
26503;DHT22;14177;51.520;6.764;2023-03-03T00:15:48;2.50;99.90
26503;DHT22;14177;51.520;6.764;2023-03-03T00:18:49;2.50;99.90
26503;DHT22;14177;51.520;6.764;2023-03-03T00:22:21;2.50;99.90
26503;DHT22;14177;51.520;6.764;2023-03-03T00:25:47;2.50;99.90
26503;DHT22;14177;51.520;6.764;2023-03-03T00:28:59;2.50;99.90
26503;DHT22;14177;51.520;6.764;2023-03-03T00:32:41;2.50;99.90
26503;DHT22;14177;51.520;6.764;2023-03-03T00:35:55;2.50;99.90
26503;DHT22;14177;51.520;6.764;2023-03-03T00:38:53;2.50;99.90
26503;DHT22;14177;51.520;6.764;2023-03-03T00:41:32;2.50;99.90
26503;DHT22;14177;51.520;6.764;2023-03-03T00:47:39;2.50;99.90
26503;DHT22;14177;51.520;6.764;2023-03-03T00:50:31;2.50;99.90
26503;DHT22;14177;51.520;6.764;2023-03-03T00:53:34;2.50;99.90
26503;DHT22;14177;51.520;6.764;2023-03-03T00:56:29;2.40;99.90
26503;DHT22;14177;51.520;6.764;2023-03-03T00:59:33;2.40;99.90
26503;DHT22;14177;51.520;6.764;2023-03-03T01:02:35;2.50;99.90
26503;DHT22;14177;51.520;6.764;2023-03-03T01:05:45;2.50;99.90
26503;DHT22;14177;51.520;6.764;2023-03-03T01:08:26;2.50;99.90
26503;DHT22;14177;51.520;6.764;2023-03-03T01:11:10;2.50;99.90
26503;DHT22;14177;51.520;6.764;2023-03-03T01:14:10;2.50;99.90
26503;DHT22;14177;51.520;6.764;2023-03-03T01:17:04;2.50;99.90
26503;DHT22;14177;51.520;6.764;2023-03-03T01:20:28;2.50;99.90
26503;DHT22;14177;51.520;6.764;2023-03-03T01:23:53;2.50;99.90
26503;DHT22;14177;51.520;6.764;2023-03-03T01:26:59;2.50;99.90
26503;DHT22;14177;51.520;6.764;2023-03-03T01:30:21;2.50;99.90
26503;DHT22;14177;51.520;6.764;2023-03-03T01:33:03;2.50;99.90
26503;DHT22;14177;51.520;6.764;2023-03-03T01:35:50;2.50;99.90
26503;DHT22;14177;51.520;6.764;2023-03-03T01:38:39;2.50;99.90
26503;DHT22;14177;51.520;6.764;2023-03-03T01:41:26;2.50;99.90
26503;DHT22;14177;51.520;6.764;2023-03-03T01:44:29;2.50;99.90
26503;DHT22;14177;51.520;6.764;2023-03-03T01:47:34;2.50;99.90
26503;DHT22;14177;51.520;6.764;2023-03-03T01:50:50;2.50;99.90
26503;DHT22;14177;51.520;6.764;2023-03-03T01:55:00;2.40;99.90
26503;DHT22;14177;51.520;6.764;2023-03-03T01:58:17;2.40;99.90
26503;DHT22;14177;51.520;6.764;2023-03-03T02:01:27;2.50;99.90
26503;DHT22;14177;51.520;6.764;2023-03-03T02:04:21;2.40;99.90
26503;DHT22;14177;51.520;6.764;2023-03-03T02:07:19;2.40;99.90
26503;DHT22;14177;51.520;6.764;2023-03-03T02:10:23;2.40;99.90
26503;DHT22;14177;51.520;6.764;2023-03-03T02:13:39;2.40;99.90
26503;DHT22;14177;51.520;6.764;2023-03-03T02:16:26;2.40;99.90
26503;DHT22;14177;51.520;6.764;2023-03-03T02:20:08;2.40;99.90
26503;DHT22;14177;51.520;6.764;2023-03-03T02:23:40;2.40;99.90
26503;DHT22;14177;51.520;6.764;2023-03-03T02:30:07;2.40;99.90
26503;DHT22;14177;51.520;6.764;2023-03-03T02:33:33;2.40;99.90
26503;DHT22;14177;51.520;6.764;2023-03-03T02:36:37;2.40;99.90
26503;DHT22;14177;51.520;6.764;2023-03-03T02:39:29;2.40;99.90
26503;DHT22;14177;51.520;6.764;2023-03-03T02:42:15;2.50;99.90
26503;DHT22;14177;51.520;6.764;2023-03-03T02:45:15;2.50;99.90
26503;DHT22;14177;51.520;6.764;2023-03-03T02:48:14;2.50;99.90
26503;DHT22;14177;51.520;6.764;2023-03-03T02:50:53;2.50;99.90
26503;DHT22;14177;51.520;6.764;2023-03-03T02:53:40;2.40;99.90
26503;DHT22;14177;51.520;6.764;2023-03-03T02:56:14;2.40;99.90
26503;DHT22;14177;51.520;6.764;2023-03-03T02:58:45;2.40;99.90
26503;DHT22;14177;51.520;6.764;2023-03-03T03:04:41;2.30;99.90
26503;DHT22;14177;51.520;6.764;2023-03-03T03:10:31;2.30;99.90
26503;DHT22;14177;51.520;6.764;2023-03-03T03:13:13;2.40;99.90
26503;DHT22;14177;51.520;6.764;2023-03-03T03:15:53;2.30;99.90
26503;DHT22;14177;51.520;6.764;2023-03-03T03:18:46;2.30;99.90
26503;DHT22;14177;51.520;6.764;2023-03-03T03:21:28;2.30;99.90
26503;DHT22;14177;51.520;6.764;2023-03-03T03:24:32;2.30;99.90
26503;DHT22;14177;51.520;6.764;2023-03-03T03:27:29;2.20;99.90
26503;DHT22;14177;51.520;6.764;2023-03-03T03:30:39;2.20;99.90
26503;DHT22;14177;51.520;6.764;2023-03-03T03:33:35;2.20;99.90
26503;DHT22;14177;51.520;6.764;2023-03-03T03:36:15;2.20;99.90
26503;DHT22;14177;51.520;6.764;2023-03-03T03:42:04;2.10;99.90
26503;DHT22;14177;51.520;6.764;2023-03-03T03:44:46;2.10;99.90
26503;DHT22;14177;51.520;6.764;2023-03-03T03:47:35;2.10;99.90
26503;DHT22;14177;51.520;6.764;2023-03-03T03:50:26;2.10;99.90
26503;DHT22;14177;51.520;6.764;2023-03-03T03:53:02;2.00;99.90
26503;DHT22;14177;51.520;6.764;2023-03-03T03:56:10;2.00;99.90
26503;DHT22;14177;51.520;6.764;2023-03-03T03:59:22;2.00;99.90
26503;DHT22;14177;51.520;6.764;2023-03-03T04:02:25;2.00;99.90
26503;DHT22;14177;51.520;6.764;2023-03-03T04:05:57;2.00;99.90
26503;DHT22;14177;51.520;6.764;2023-03-03T04:08:34;2.00;99.90
26503;DHT22;14177;51.520;6.764;2023-03-03T04:11:22;2.00;99.90
26503;DHT22;14177;51.520;6.764;2023-03-03T04:14:10;2.00;99.90
26503;DHT22;14177;51.520;6.764;2023-03-03T04:16:46;1.90;99.90
26503;DHT22;14177;51.520;6.764;2023-03-03T04:19:51;1.90;99.90
26503;DHT22;14177;51.520;6.764;2023-03-03T04:23:03;2.00;99.90
26503;DHT22;14177;51.520;6.764;2023-03-03T04:26:24;2.00;99.90
26503;DHT22;14177;51.520;6.764;2023-03-03T04:29:44;2.00;99.90
26503;DHT22;14177;51.520;6.764;2023-03-03T04:32:56;2.00;99.90
26503;DHT22;14177;51.520;6.764;2023-03-03T04:39:58;1.90;99.90
26503;DHT22;14177;51.520;6.764;2023-03-03T04:43:31;2.00;99.90
26503;DHT22;14177;51.520;6.764;2023-03-03T04:47:10;2.00;99.90
26503;DHT22;14177;51.520;6.764;2023-03-03T04:51:08;1.90;99.90
26503;DHT22;14177;51.520;6.764;2023-03-03T04:58:23;1.90;99.90
26503;DHT22;14177;51.520;6.764;2023-03-03T05:04:54;1.90;99.90
26503;DHT22;14177;51.520;6.764;2023-03-03T05:11:56;1.90;99.90
26503;DHT22;14177;51.520;6.764;2023-03-03T05:15:38;1.90;99.90
26503;DHT22;14177;51.520;6.764;2023-03-03T05:18:35;1.90;99.90
26503;DHT22;14177;51.520;6.764;2023-03-03T05:21:57;1.90;99.90
26503;DHT22;14177;51.520;6.764;2023-03-03T05:25:09;2.00;99.90
26503;DHT22;14177;51.520;6.764;2023-03-03T05:28:31;1.90;99.90
26503;DHT22;14177;51.520;6.764;2023-03-03T05:31:27;1.90;99.90
26503;DHT22;14177;51.520;6.764;2023-03-03T05:34:44;1.90;99.90
26503;DHT22;14177;51.520;6.764;2023-03-03T05:37:24;1.90;99.90
26503;DHT22;14177;51.520;6.764;2023-03-03T05:41:30;1.90;99.90
26503;DHT22;14177;51.520;6.764;2023-03-03T05:44:46;1.90;99.90
26503;DHT22;14177;51.520;6.764;2023-03-03T05:47:20;1.90;99.90
26503;DHT22;14177;51.520;6.764;2023-03-03T05:50:14;2.00;99.90
26503;DHT22;14177;51.520;6.764;2023-03-03T05:53:48;2.00;99.90
26503;DHT22;14177;51.520;6.764;2023-03-03T05:56:57;2.00;99.90
26503;DHT22;14177;51.520;6.764;2023-03-03T06:03:16;2.00;99.90
26503;DHT22;14177;51.520;6.764;2023-03-03T06:06:35;2.00;99.90
26503;DHT22;14177;51.520;6.764;2023-03-03T06:09:11;2.00;99.90
26503;DHT22;14177;51.520;6.764;2023-03-03T06:11:40;2.00;99.90
26503;DHT22;14177;51.520;6.764;2023-03-03T06:14:17;2.00;99.90
26503;DHT22;14177;51.520;6.764;2023-03-03T06:16:52;2.00;99.90
26503;DHT22;14177;51.520;6.764;2023-03-03T06:19:20;2.00;99.90
26503;DHT22;14177;51.520;6.764;2023-03-03T06:21:47;2.00;99.90
26503;DHT22;14177;51.520;6.764;2023-03-03T06:24:14;2.00;99.90
26503;DHT22;14177;51.520;6.764;2023-03-03T06:26:41;2.00;99.90
26503;DHT22;14177;51.520;6.764;2023-03-03T06:29:08;2.00;99.90
26503;DHT22;14177;51.520;6.764;2023-03-03T06:31:35;2.00;99.90
26503;DHT22;14177;51.520;6.764;2023-03-03T06:34:05;2.10;99.90
26503;DHT22;14177;51.520;6.764;2023-03-03T06:36:32;2.10;99.90
26503;DHT22;14177;51.520;6.764;2023-03-03T06:38:59;2.00;99.90
26503;DHT22;14177;51.520;6.764;2023-03-03T06:41:26;2.00;99.90
26503;DHT22;14177;51.520;6.764;2023-03-03T06:43:55;2.10;99.90
26503;DHT22;14177;51.520;6.764;2023-03-03T06:46:26;2.10;99.90
26503;DHT22;14177;51.520;6.764;2023-03-03T06:48:54;2.00;99.90
26503;DHT22;14177;51.520;6.764;2023-03-03T06:51:34;2.10;99.90
26503;DHT22;14177;51.520;6.764;2023-03-03T06:54:12;2.00;99.90
26503;DHT22;14177;51.520;6.764;2023-03-03T06:56:45;2.10;99.90
26503;DHT22;14177;51.520;6.764;2023-03-03T06:59:19;2.10;99.90
26503;DHT22;14177;51.520;6.764;2023-03-03T07:01:49;2.10;99.90
26503;DHT22;14177;51.520;6.764;2023-03-03T07:04:32;2.10;99.90
26503;DHT22;14177;51.520;6.764;2023-03-03T07:07:21;2.10;99.90
26503;DHT22;14177;51.520;6.764;2023-03-03T07:09:56;2.20;99.90
26503;DHT22;14177;51.520;6.764;2023-03-03T07:12:29;2.20;99.90
26503;DHT22;14177;51.520;6.764;2023-03-03T07:15:19;2.20;99.90
26503;DHT22;14177;51.520;6.764;2023-03-03T07:17:55;2.20;99.90
26503;DHT22;14177;51.520;6.764;2023-03-03T07:20:35;2.20;99.90
26503;DHT22;14177;51.520;6.764;2023-03-03T07:23:59;2.20;99.90
26503;DHT22;14177;51.520;6.764;2023-03-03T07:26:17;2.20;99.90
26503;DHT22;14177;51.520;6.764;2023-03-03T07:28:53;2.20;99.90
26503;DHT22;14177;51.520;6.764;2023-03-03T07:31:35;2.20;99.90
26503;DHT22;14177;51.520;6.764;2023-03-03T07:34:21;2.20;99.90
26503;DHT22;14177;51.520;6.764;2023-03-03T07:37:19;2.20;99.90
26503;DHT22;14177;51.520;6.764;2023-03-03T07:39:51;2.30;99.90
26503;DHT22;14177;51.520;6.764;2023-03-03T07:42:45;2.30;99.90
26503;DHT22;14177;51.520;6.764;2023-03-03T07:45:36;2.30;99.90
26503;DHT22;14177;51.520;6.764;2023-03-03T07:48:30;2.30;99.90
26503;DHT22;14177;51.520;6.764;2023-03-03T08:05:37;2.50;99.90
26503;DHT22;14177;51.520;6.764;2023-03-03T08:10:43;2.50;99.90
26503;DHT22;14177;51.520;6.764;2023-03-03T08:13:22;2.50;99.90
26503;DHT22;14177;51.520;6.764;2023-03-03T08:18:47;2.50;99.90
26503;DHT22;14177;51.520;6.764;2023-03-03T08:21:19;2.50;99.90
26503;DHT22;14177;51.520;6.764;2023-03-03T08:24:06;2.50;99.90
26503;DHT22;14177;51.520;6.764;2023-03-03T08:26:33;2.50;99.90
26503;DHT22;14177;51.520;6.764;2023-03-03T08:29:01;2.50;99.90
26503;DHT22;14177;51.520;6.764;2023-03-03T08:31:28;2.50;99.90
26503;DHT22;14177;51.520;6.764;2023-03-03T08:34:07;2.50;99.90
26503;DHT22;14177;51.520;6.764;2023-03-03T08:36:34;2.50;99.90
26503;DHT22;14177;51.520;6.764;2023-03-03T08:39:03;2.50;99.90
26503;DHT22;14177;51.520;6.764;2023-03-03T08:41:31;2.50;99.90
26503;DHT22;14177;51.520;6.764;2023-03-03T08:43:58;2.50;99.90
26503;DHT22;14177;51.520;6.764;2023-03-03T08:46:25;2.50;99.90
26503;DHT22;14177;51.520;6.764;2023-03-03T08:48:54;2.50;99.90
26503;DHT22;14177;51.520;6.764;2023-03-03T08:51:21;2.60;99.90
26503;DHT22;14177;51.520;6.764;2023-03-03T08:53:48;2.60;99.90
26503;DHT22;14177;51.520;6.764;2023-03-03T08:56:15;2.60;99.90
26503;DHT22;14177;51.520;6.764;2023-03-03T08:58:42;2.70;99.90
26503;DHT22;14177;51.520;6.764;2023-03-03T09:01:28;2.70;99.90
26503;DHT22;14177;51.520;6.764;2023-03-03T09:03:55;2.80;99.90
26503;DHT22;14177;51.520;6.764;2023-03-03T09:06:23;2.80;99.90
26503;DHT22;14177;51.520;6.764;2023-03-03T09:08:51;2.80;99.90
26503;DHT22;14177;51.520;6.764;2023-03-03T09:11:26;2.80;99.90
26503;DHT22;14177;51.520;6.764;2023-03-03T09:14:12;2.80;99.90
26503;DHT22;14177;51.520;6.764;2023-03-03T09:16:49;2.80;99.90
26503;DHT22;14177;51.520;6.764;2023-03-03T09:19:34;2.80;99.90
26503;DHT22;14177;51.520;6.764;2023-03-03T09:22:24;2.80;99.90
26503;DHT22;14177;51.520;6.764;2023-03-03T09:24:54;2.80;99.90
26503;DHT22;14177;51.520;6.764;2023-03-03T09:27:33;2.80;99.90
26503;DHT22;14177;51.520;6.764;2023-03-03T09:33:16;2.90;99.90
26503;DHT22;14177;51.520;6.764;2023-03-03T09:36:43;2.90;99.90
26503;DHT22;14177;51.520;6.764;2023-03-03T09:39:28;2.90;99.90
26503;DHT22;14177;51.520;6.764;2023-03-03T09:42:18;2.90;99.90
26503;DHT22;14177;51.520;6.764;2023-03-03T09:45:12;2.90;99.90
26503;DHT22;14177;51.520;6.764;2023-03-03T09:56:34;3.10;99.90
26503;DHT22;14177;51.520;6.764;2023-03-03T10:11:25;3.30;99.90
26503;DHT22;14177;51.520;6.764;2023-03-03T10:14:35;3.30;99.90
26503;DHT22;14177;51.520;6.764;2023-03-03T10:24:02;3.40;99.90
26503;DHT22;14177;51.520;6.764;2023-03-03T10:32:39;3.50;99.90
26503;DHT22;14177;51.520;6.764;2023-03-03T10:56:21;3.80;99.90
26503;DHT22;14177;51.520;6.764;2023-03-03T11:02:22;3.90;99.90
26503;DHT22;14177;51.520;6.764;2023-03-03T11:07:54;4.00;99.90
26503;DHT22;14177;51.520;6.764;2023-03-03T11:19:29;4.20;99.90
26503;DHT22;14177;51.520;6.764;2023-03-03T11:24:38;4.30;99.90
26503;DHT22;14177;51.520;6.764;2023-03-03T11:27:34;4.30;99.90
26503;DHT22;14177;51.520;6.764;2023-03-03T11:30:35;4.30;99.90
26503;DHT22;14177;51.520;6.764;2023-03-03T11:33:09;4.40;99.90
26503;DHT22;14177;51.520;6.764;2023-03-03T11:35:46;4.40;99.90
26503;DHT22;14177;51.520;6.764;2023-03-03T11:41:31;4.60;99.90
26503;DHT22;14177;51.520;6.764;2023-03-03T11:46:59;4.70;99.90
26503;DHT22;14177;51.520;6.764;2023-03-03T11:57:49;5.00;99.90
26503;DHT22;14177;51.520;6.764;2023-03-03T12:00:43;5.10;99.90
26503;DHT22;14177;51.520;6.764;2023-03-03T12:07:15;5.30;99.90
26503;DHT22;14177;51.520;6.764;2023-03-03T12:09:57;5.40;99.90
26503;DHT22;14177;51.520;6.764;2023-03-03T12:21:08;5.60;99.90
26503;DHT22;14177;51.520;6.764;2023-03-03T12:27:29;5.90;99.90
26503;DHT22;14177;51.520;6.764;2023-03-03T12:30:24;6.50;99.90
26503;DHT22;14177;51.520;6.764;2023-03-03T12:38:48;8.40;99.90
26503;DHT22;14177;51.520;6.764;2023-03-03T12:41:49;9.10;99.90
26503;DHT22;14177;51.520;6.764;2023-03-03T12:44:24;9.80;97.00
26503;DHT22;14177;51.520;6.764;2023-03-03T12:49:56;10.60;95.20
26503;DHT22;14177;51.520;6.764;2023-03-03T12:52:57;10.90;90.60
26503;DHT22;14177;51.520;6.764;2023-03-03T12:55:52;11.00;80.90
26503;DHT22;14177;51.520;6.764;2023-03-03T13:06:56;11.70;73.80
26503;DHT22;14177;51.520;6.764;2023-03-03T13:15:29;11.70;70.90
26503;DHT22;14177;51.520;6.764;2023-03-03T13:27:06;12.60;69.30
26503;DHT22;14177;51.520;6.764;2023-03-03T13:32:58;12.80;68.50
26503;DHT22;14177;51.520;6.764;2023-03-03T13:36:09;13.10;65.90
26503;DHT22;14177;51.520;6.764;2023-03-03T13:38:42;13.10;64.40
26503;DHT22;14177;51.520;6.764;2023-03-03T13:44:07;12.40;65.30
26503;DHT22;14177;51.520;6.764;2023-03-03T13:46:50;12.40;69.10
26503;DHT22;14177;51.520;6.764;2023-03-03T13:52:14;12.90;67.20
26503;DHT22;14177;51.520;6.764;2023-03-03T13:58:00;13.40;64.40
26503;DHT22;14177;51.520;6.764;2023-03-03T14:03:39;13.80;64.30
26503;DHT22;14177;51.520;6.764;2023-03-03T14:06:21;14.10;62.90
26503;DHT22;14177;51.520;6.764;2023-03-03T14:08:53;14.20;60.30
26503;DHT22;14177;51.520;6.764;2023-03-03T14:11:47;14.20;60.50
26503;DHT22;14177;51.520;6.764;2023-03-03T14:14:51;14.20;61.40
26503;DHT22;14177;51.520;6.764;2023-03-03T14:17:56;14.10;61.20
26503;DHT22;14177;51.520;6.764;2023-03-03T14:20:42;14.10;61.10
26503;DHT22;14177;51.520;6.764;2023-03-03T14:23:20;14.00;61.00
26503;DHT22;14177;51.520;6.764;2023-03-03T14:28:49;14.00;60.80
26503;DHT22;14177;51.520;6.764;2023-03-03T14:31:22;14.00;61.40
26503;DHT22;14177;51.520;6.764;2023-03-03T14:36:42;14.10;61.10
26503;DHT22;14177;51.520;6.764;2023-03-03T14:39:35;14.10;60.50
26503;DHT22;14177;51.520;6.764;2023-03-03T14:42:29;14.00;61.40
26503;DHT22;14177;51.520;6.764;2023-03-03T14:45:00;14.00;61.40
26503;DHT22;14177;51.520;6.764;2023-03-03T14:47:54;14.00;60.30
26503;DHT22;14177;51.520;6.764;2023-03-03T14:50:35;14.00;60.60
26503;DHT22;14177;51.520;6.764;2023-03-03T14:53:10;13.90;58.60
26503;DHT22;14177;51.520;6.764;2023-03-03T14:55:48;13.60;61.40
26503;DHT22;14177;51.520;6.764;2023-03-03T14:58:36;13.60;62.60
26503;DHT22;14177;51.520;6.764;2023-03-03T15:01:22;13.60;61.20
26503;DHT22;14177;51.520;6.764;2023-03-03T15:09:33;13.40;62.70
26503;DHT22;14177;51.520;6.764;2023-03-03T15:12:35;13.60;62.40
26503;DHT22;14177;51.520;6.764;2023-03-03T15:17:42;13.50;62.10
26503;DHT22;14177;51.520;6.764;2023-03-03T15:20:31;13.50;61.90
26503;DHT22;14177;51.520;6.764;2023-03-03T15:23:35;13.40;62.20
26503;DHT22;14177;51.520;6.764;2023-03-03T15:26:22;13.00;62.50
26503;DHT22;14177;51.520;6.764;2023-03-03T15:35:06;12.30;66.20
26503;DHT22;14177;51.520;6.764;2023-03-03T15:37:49;12.00;65.60
26503;DHT22;14177;51.520;6.764;2023-03-03T15:40:29;11.90;67.10
26503;DHT22;14177;51.520;6.764;2023-03-03T15:43:33;11.90;67.90
26503;DHT22;14177;51.520;6.764;2023-03-03T15:46:43;12.00;67.60
26503;DHT22;14177;51.520;6.764;2023-03-03T15:52:08;12.10;67.50
26503;DHT22;14177;51.520;6.764;2023-03-03T16:03:58;11.70;69.50
26503;DHT22;14177;51.520;6.764;2023-03-03T16:15:10;10.90;71.00
26503;DHT22;14177;51.520;6.764;2023-03-03T16:20:56;10.40;75.60
26503;DHT22;14177;51.520;6.764;2023-03-03T16:23:55;10.30;77.30
26503;DHT22;14177;51.520;6.764;2023-03-03T16:26:29;10.10;79.90
26503;DHT22;14177;51.520;6.764;2023-03-03T16:34:25;9.90;80.00
26503;DHT22;14177;51.520;6.764;2023-03-03T16:39:50;9.70;83.20
26503;DHT22;14177;51.520;6.764;2023-03-03T16:42:31;9.60;83.80
26503;DHT22;14177;51.520;6.764;2023-03-03T16:45:19;9.50;84.80
26503;DHT22;14177;51.520;6.764;2023-03-03T16:47:51;9.50;86.10
26503;DHT22;14177;51.520;6.764;2023-03-03T16:50:41;9.40;88.10
26503;DHT22;14177;51.520;6.764;2023-03-03T16:53:56;9.30;89.10
26503;DHT22;14177;51.520;6.764;2023-03-03T16:56:51;9.20;90.40
26503;DHT22;14177;51.520;6.764;2023-03-03T17:17:00;8.10;96.50
26503;DHT22;14177;51.520;6.764;2023-03-03T17:19:58;7.90;97.00
26503;DHT22;14177;51.520;6.764;2023-03-03T17:22:51;7.80;97.30
26503;DHT22;14177;51.520;6.764;2023-03-03T17:29:21;7.50;98.20
26503;DHT22;14177;51.520;6.764;2023-03-03T17:31:52;7.40;98.80
26503;DHT22;14177;51.520;6.764;2023-03-03T17:45:38;6.80;99.90
26503;DHT22;14177;51.520;6.764;2023-03-03T18:33:41;6.60;99.90
26503;DHT22;14177;51.520;6.764;2023-03-03T18:38:54;6.60;99.90
26503;DHT22;14177;51.520;6.764;2023-03-03T18:41:29;6.60;99.90
26503;DHT22;14177;51.520;6.764;2023-03-03T18:44:01;6.60;99.90
26503;DHT22;14177;51.520;6.764;2023-03-03T18:46:49;6.60;99.90
26503;DHT22;14177;51.520;6.764;2023-03-03T18:49:17;6.60;99.90
26503;DHT22;14177;51.520;6.764;2023-03-03T18:52:20;6.70;99.90
26503;DHT22;14177;51.520;6.764;2023-03-03T18:57:38;6.70;99.90
26503;DHT22;14177;51.520;6.764;2023-03-03T19:00:21;6.70;99.90
26503;DHT22;14177;51.520;6.764;2023-03-03T19:02:52;6.70;99.90
26503;DHT22;14177;51.520;6.764;2023-03-03T19:05:23;6.70;99.90
26503;DHT22;14177;51.520;6.764;2023-03-03T19:08:26;6.70;99.90
26503;DHT22;14177;51.520;6.764;2023-03-03T19:11:36;6.70;99.90
26503;DHT22;14177;51.520;6.764;2023-03-03T19:18:14;6.70;99.90
26503;DHT22;14177;51.520;6.764;2023-03-03T19:24:03;6.70;99.90
26503;DHT22;14177;51.520;6.764;2023-03-03T19:32:45;6.70;99.90
26503;DHT22;14177;51.520;6.764;2023-03-03T19:36:19;6.70;99.90
26503;DHT22;14177;51.520;6.764;2023-03-03T19:52:07;6.70;99.90
26503;DHT22;14177;51.520;6.764;2023-03-03T20:07:26;6.70;99.90
26503;DHT22;14177;51.520;6.764;2023-03-03T20:16:40;6.60;99.90
26503;DHT22;14177;51.520;6.764;2023-03-03T20:24:47;6.60;99.90
26503;DHT22;14177;51.520;6.764;2023-03-03T20:27:41;6.60;99.90
26503;DHT22;14177;51.520;6.764;2023-03-03T20:30:30;6.60;99.90
26503;DHT22;14177;51.520;6.764;2023-03-03T20:33:43;6.60;99.90
26503;DHT22;14177;51.520;6.764;2023-03-03T20:42:53;6.60;99.90
26503;DHT22;14177;51.520;6.764;2023-03-03T20:51:54;6.60;99.90
26503;DHT22;14177;51.520;6.764;2023-03-03T20:54:43;6.50;99.90
26503;DHT22;14177;51.520;6.764;2023-03-03T20:57:26;6.50;99.90
26503;DHT22;14177;51.520;6.764;2023-03-03T21:00:29;6.50;99.90
26503;DHT22;14177;51.520;6.764;2023-03-03T21:03:31;6.50;99.90
26503;DHT22;14177;51.520;6.764;2023-03-03T21:06:11;6.50;99.90
26503;DHT22;14177;51.520;6.764;2023-03-03T21:08:53;6.40;99.90
26503;DHT22;14177;51.520;6.764;2023-03-03T21:14:32;6.40;99.90
26503;DHT22;14177;51.520;6.764;2023-03-03T21:17:24;6.40;99.90
26503;DHT22;14177;51.520;6.764;2023-03-03T21:19:53;6.30;99.90
26503;DHT22;14177;51.520;6.764;2023-03-03T21:22:20;6.40;99.90
26503;DHT22;14177;51.520;6.764;2023-03-03T21:24:49;6.40;99.90
26503;DHT22;14177;51.520;6.764;2023-03-03T21:27:33;6.30;99.90
26503;DHT22;14177;51.520;6.764;2023-03-03T21:30:12;6.30;99.90
26503;DHT22;14177;51.520;6.764;2023-03-03T21:35:13;6.30;99.90
26503;DHT22;14177;51.520;6.764;2023-03-03T21:37:54;6.30;99.90
26503;DHT22;14177;51.520;6.764;2023-03-03T21:40:25;6.30;99.90
26503;DHT22;14177;51.520;6.764;2023-03-03T21:42:55;6.30;99.90
26503;DHT22;14177;51.520;6.764;2023-03-03T21:45:32;6.30;99.90
26503;DHT22;14177;51.520;6.764;2023-03-03T21:48:10;6.20;99.90
26503;DHT22;14177;51.520;6.764;2023-03-03T21:50:37;6.20;99.90
26503;DHT22;14177;51.520;6.764;2023-03-03T21:53:06;6.20;99.90
26503;DHT22;14177;51.520;6.764;2023-03-03T21:55:34;6.20;99.90
26503;DHT22;14177;51.520;6.764;2023-03-03T21:58:01;6.20;99.90
26503;DHT22;14177;51.520;6.764;2023-03-03T22:00:28;6.20;99.90
26503;DHT22;14177;51.520;6.764;2023-03-03T22:02:55;6.20;99.90
26503;DHT22;14177;51.520;6.764;2023-03-03T22:05:23;6.20;99.90
26503;DHT22;14177;51.520;6.764;2023-03-03T22:07:59;6.10;99.90
26503;DHT22;14177;51.520;6.764;2023-03-03T22:10:26;6.10;99.90
26503;DHT22;14177;51.520;6.764;2023-03-03T22:12:56;6.20;99.90
26503;DHT22;14177;51.520;6.764;2023-03-03T22:15:26;6.10;99.90
26503;DHT22;14177;51.520;6.764;2023-03-03T22:17:56;6.10;99.90
26503;DHT22;14177;51.520;6.764;2023-03-03T22:20:23;6.10;99.90
26503;DHT22;14177;51.520;6.764;2023-03-03T22:22:50;6.10;99.90
26503;DHT22;14177;51.520;6.764;2023-03-03T22:25:17;6.10;99.90
26503;DHT22;14177;51.520;6.764;2023-03-03T22:27:44;6.10;99.90
26503;DHT22;14177;51.520;6.764;2023-03-03T22:30:12;6.10;99.90
26503;DHT22;14177;51.520;6.764;2023-03-03T22:32:39;6.00;99.90
26503;DHT22;14177;51.520;6.764;2023-03-03T22:35:06;6.10;99.90
26503;DHT22;14177;51.520;6.764;2023-03-03T22:37:34;6.00;99.90
26503;DHT22;14177;51.520;6.764;2023-03-03T22:40:00;6.10;99.90
26503;DHT22;14177;51.520;6.764;2023-03-03T22:42:28;6.00;99.90
26503;DHT22;14177;51.520;6.764;2023-03-03T22:44:54;6.00;99.90
26503;DHT22;14177;51.520;6.764;2023-03-03T22:47:21;6.00;99.90
26503;DHT22;14177;51.520;6.764;2023-03-03T22:49:48;6.00;99.90
26503;DHT22;14177;51.520;6.764;2023-03-03T22:52:15;6.00;99.90
26503;DHT22;14177;51.520;6.764;2023-03-03T22:54:42;6.00;99.90
26503;DHT22;14177;51.520;6.764;2023-03-03T22:57:09;6.10;99.90
26503;DHT22;14177;51.520;6.764;2023-03-03T22:59:35;6.00;99.90
26503;DHT22;14177;51.520;6.764;2023-03-03T23:02:02;6.00;99.90
26503;DHT22;14177;51.520;6.764;2023-03-03T23:04:29;6.10;99.90
26503;DHT22;14177;51.520;6.764;2023-03-03T23:06:59;6.10;99.90
26503;DHT22;14177;51.520;6.764;2023-03-03T23:09:26;6.10;99.90
26503;DHT22;14177;51.520;6.764;2023-03-03T23:11:55;6.10;99.90
26503;DHT22;14177;51.520;6.764;2023-03-03T23:14:22;6.10;99.90
26503;DHT22;14177;51.520;6.764;2023-03-03T23:16:49;6.10;99.90
26503;DHT22;14177;51.520;6.764;2023-03-03T23:19:16;6.10;99.90
26503;DHT22;14177;51.520;6.764;2023-03-03T23:21:43;6.00;99.90
26503;DHT22;14177;51.520;6.764;2023-03-03T23:24:09;6.00;99.90
26503;DHT22;14177;51.520;6.764;2023-03-03T23:26:37;6.00;99.90
26503;DHT22;14177;51.520;6.764;2023-03-03T23:29:04;6.00;99.90
26503;DHT22;14177;51.520;6.764;2023-03-03T23:31:31;6.00;99.90
26503;DHT22;14177;51.520;6.764;2023-03-03T23:33:58;6.00;99.90
26503;DHT22;14177;51.520;6.764;2023-03-03T23:36:25;6.00;99.90
26503;DHT22;14177;51.520;6.764;2023-03-03T23:38:52;6.00;99.90
26503;DHT22;14177;51.520;6.764;2023-03-03T23:41:19;6.00;99.90
26503;DHT22;14177;51.520;6.764;2023-03-03T23:43:46;6.00;99.90
26503;DHT22;14177;51.520;6.764;2023-03-03T23:46:13;6.00;99.90
26503;DHT22;14177;51.520;6.764;2023-03-03T23:48:40;6.00;99.90
26503;DHT22;14177;51.520;6.764;2023-03-03T23:51:07;6.00;99.90
26503;DHT22;14177;51.520;6.764;2023-03-03T23:53:34;6.00;99.90
26503;DHT22;14177;51.520;6.764;2023-03-03T23:56:01;6.00;99.90
26503;DHT22;14177;51.520;6.764;2023-03-03T23:58:28;6.00;99.90
